Las Vegas, Nevada
Traffic Map
Current Weather Conditions
Las Vegas, Nevada
Broken Clouds
Broken Clouds
90°
Feels Like: 90°
Wind Chill: 90° Ceiling: 18000
Heat Index: 90° Visibility: 10mi
Dew Point: 52° Wind: 10mph
Humidity: 27% Direction: 170° (S)
Pressure: 29.92in Gusts: 0mph
Raw Report DataKLAS 300356Z 17009KT 10SM FEW140 BKN180 BKN240 32/11 A2992 RMK AO2 SLP101 T03220111
Traffic Incident Summary
Active as of:
Severity:
Category:
InformationThere was an issue retrieving the traffic information for this location. Please try a different location or try again shortly.
Advertisements
Track Severe Weather on mobile